• Join FlightAware (Why Join?)
  • Login
  • US Flag 
05:08AM EDT


 

Airport Tracker/Info


-or-


 

Live Flight TrackerFlight Track Log ✈ AVN11 ✈ 06/Jan/2014 ✈ YSSY / SYD - NVVV / VLI

Flight Track Log - Related Links

Times and Time Zones

All times are in EST time to prevent confusion due to time zone crossing. See the AVN11 flight status page for this flight to view local times or setup timezone preferences in your user account.

Time Position Orientation Groundspeed Altitude Reporting Facility
EST Latitude Longitude Course Direction KTS MPH feet Rate Location/Type
08:03PM -33.9393 151.1742 167° South 125 144  Level FlightAware ADS-B (YRPA)
08:04PM -33.9538 151.1779 168° South 169 194 200 1,260 Climbing FlightAware ADS-B (YRPA)
08:04PM -33.9677 151.1815 168° South 182 209 800 2,580 Climbing FlightAware ADS-B (YRAY)
08:04PM -33.9781 151.1818 179° South 164 189 1,500 2,820 Climbing FlightAware ADS-B (YRPA)
08:04PM -33.9852 151.1810 185° South 180 207 1,800 1,320 Climbing FlightAware ADS-B
08:05PM -34.0011 151.1788 187° South 195 224 2,100 1,020 Climbing FlightAware ADS-B (YRAY)
08:05PM -34.0201 151.1767 185° South 212 244 2,500 1,800 Climbing FlightAware ADS-B (YRAY)
08:05PM -34.0412 151.1799 173° South 229 264 3,300 2,340 Climbing FlightAware ADS-B (YRAY)
08:05PM -34.0491 151.1821 167° South 234 269 3,600 1,380 Climbing FlightAware ADS-B (YRPA)
08:06PM -34.0690 151.1889 164° South 256 295 3,900 1,560 Climbing FlightAware ADS-B (YSSY / SYD)
08:06PM -34.0376 151.1790 345° North 263 303 4,300 2,280 Climbing FlightAware ADS-B (YPLB)
08:06PM -34.0912 151.1964 165° South 272 313 4,600 2,100 Climbing FlightAware ADS-B
08:06PM -34.1078 151.2052 156° South 283 326 5,000 1,740 Climbing FlightAware ADS-B (YPLB)
08:06PM -34.0939 151.1974 335° Northwest 290 334 5,100 720 Climbing FlightAware ADS-B
08:06PM -34.1189 151.2186 145° Southeast 293 337 5,200 780 Climbing FlightAware ADS-B (YRPA)
08:07PM -34.1269 151.2405 114° Southeast 315 362 5,400 900 Climbing FlightAware ADS-B
08:07PM -34.1280 151.2499 98° East 323 372 5,500 1,260 Climbing FlightAware ADS-B (YSSY / SYD)
08:07PM -34.1275 151.2648 88° East 332 382 5,700 1,200 Climbing FlightAware ADS-B (YRPA)
08:07PM -34.1192 151.3016 75° East 350 403 6,100 1,620 Climbing FlightAware ADS-B (YRPA)
08:08PM -34.1047 151.3449 68° East 361 415 6,900 2,100 Climbing FlightAware ADS-B
08:08PM -34.0919 151.3748 63° Northeast 363 418 7,500 2,280 Climbing FlightAware ADS-B (YRPA)
08:08PM -34.0771 151.4096 63° Northeast 367 422 8,300 2,400 Climbing FlightAware ADS-B (YRPA)
08:08PM -34.0642 151.4404 63° Northeast 375 432 8,900 2,220 Climbing FlightAware ADS-B
08:09PM -34.0512 151.4720 64° Northeast 382 440 9,600 2,160 Climbing FlightAware ADS-B
08:09PM -34.0169 151.5551 64° Northeast 388 447 11,100 2,100 Climbing FlightAware ADS-B
08:10PM -33.9870 151.6263 63° Northeast 398 458 12,400 2,160 Climbing FlightAware ADS-B (YSSY / SYD)
08:11PM -33.9510 151.7120 63° Northeast 407 468 14,000 2,160 Climbing FlightAware ADS-B
08:12PM -33.9109 151.8082 63° Northeast 422 486 15,700 2,220 Climbing FlightAware ADS-B (YSSY / SYD)
08:12PM -33.8819 151.8773 63° Northeast 424 488 17,000 1,980 Climbing FlightAware ADS-B (YSSY / SYD)
08:13PM -33.8390 151.9565 57° Northeast 431 496 18,100 1,620 Climbing FlightAware ADS-B (YSSY / SYD)
08:13PM -33.8181 151.9850 49° Northeast 429 494 18,500 1,860 Climbing FlightAware ADS-B (YRPA)
08:14PM -33.7535 152.0737 49° Northeast 443 510 20,100 1,920 Climbing FlightAware ADS-B (YSSY / SYD)
08:14PM -33.7044 152.1416 49° Northeast 438 504 21,300 2,460 Climbing Aus ATC (RADAR)
08:14PM -33.6908 152.1600 49° Northeast 445 512 21,700 1,980 Climbing FlightAware ADS-B (YPLB)
08:15PM -33.6497 152.2162 49° Northeast 447 514 22,600 1,440 Climbing FlightAware ADS-B (YRPA)
08:16PM -33.5970 152.2884 49° Northeast 462 532 23,500 1,380 Climbing FlightAware ADS-B (YRPA)
08:16PM -33.5540 152.3469 49° Northeast 464 534 24,200 1,860 Climbing Aus ATC (RADAR)
08:16PM -33.5248 152.3870 49° Northeast 466 536 24,900 1,740 Climbing FlightAware ADS-B (YPLB)
08:17PM -33.5100 152.4072 49° Northeast 468 539 25,100 1,320 Climbing FlightAware ADS-B (YRPA)
08:17PM -33.4334 152.5115 49° Northeast 476 548 26,300 1,500 Climbing FlightAware ADS-B (YPLB)
08:18PM -33.3785 152.5859 49° Northeast 481 554 27,200 1,260 Climbing FlightAware ADS-B (YPLB)
08:19PM -33.3203 152.6648 49° Northeast 484 557 28,000 1,080 Climbing FlightAware ADS-B (YPLB)
08:19PM -33.2904 152.7051 48° Northeast 488 562 28,300 540 Climbing FlightAware ADS-B (YPLB)
08:20PM -33.2520 152.7569 48° Northeast 481 554 28,500 600 Climbing Aus ATC (RADAR)
08:20PM -33.2417 152.7709 48° Northeast 493 567 28,700 1,020 Climbing FlightAware ADS-B (YRPA)
08:20PM -33.1793 152.8549 48° Northeast 499 574 29,300 1,200 Climbing FlightAware ADS-B (YRPA)
08:21PM -33.1117 152.9459 48° Northeast 494 568 30,400 1,440 Climbing FlightAware ADS-B (YRPA)
08:22PM -33.0428 153.0384 48° Northeast 499 574 31,300 1,200 Climbing FlightAware ADS-B (YPLB)
08:22PM -32.9826 153.1190 48° Northeast 498 573 32,000 1,320 Climbing FlightAware ADS-B (YPLB)
08:23PM -32.9208 153.2019 48° Northeast 488 562 33,100 1,440 Climbing FlightAware ADS-B (YPLB)
08:24PM -32.8648 153.2770 48° Northeast 485 558 33,900 1,020 Climbing FlightAware ADS-B (YPLB)
08:24PM -32.8018 153.3607 48° Northeast 485 558 34,500 660 Climbing FlightAware ADS-B (YPLB)
08:25PM -32.7675 153.4061 48° Northeast 486 559 34,700 480 Climbing FlightAware ADS-B (YRPA)
08:25PM -32.7119 153.4794 48° Northeast 487 560 35,000 240 Climbing FlightAware ADS-B (YPLB)
08:26PM -32.6645 153.5422 48° Northeast 489 563 35,000  Level FlightAware ADS-B (YRPA)
08:27PM -32.5909 153.6397 48° Northeast 485 558 35,000  Level FlightAware ADS-B (YPLB)
08:27PM -32.5509 153.6924 48° Northeast 484 557 35,000 -120 Level FlightAware ADS-B (YRPA)
08:28PM -32.5048 153.7534 48° Northeast 468 539 34,900  Descending Aus ATC (RADAR)
08:28PM -32.4738 153.7936 48° Northeast 475 547 35,000 60 Climbing FlightAware ADS-B (YPLB)
08:29PM -32.4212 153.8622 48° Northeast 474 545 35,000  Level FlightAware ADS-B (YPLB)
08:29PM -32.3540 153.9500 48° Northeast 473 544 35,000  Level FlightAware ADS-B (YPLB)
08:30PM -32.2971 154.0243 48° Northeast 473 544 35,000 -120 Level FlightAware ADS-B (YPLB)
08:31PM -32.2628 154.0693 48° Northeast 458 527 34,900  Descending Aus ATC (RADAR)
08:31PM -32.2419 154.0963 48° Northeast 471 542 35,000 120 Climbing FlightAware ADS-B (YPLB)
08:31PM -32.2050 154.1443 48° Northeast 470 541 35,000 -120 Level FlightAware ADS-B (YPLB)
08:32PM -32.1387 154.2307 48° Northeast 455 524 34,900  Descending Aus ATC (RADAR)
08:32PM -32.1228 154.2511 48° Northeast 468 539 35,000 120 Climbing FlightAware ADS-B (YPLB)
08:33PM -32.0649 154.3263 48° Northeast 466 536 35,000 -120 Level FlightAware ADS-B (YPLB)
08:33PM -32.0298 154.3716 48° Northeast 451 519 34,900  Descending Aus ATC (RADAR)
08:33PM -32.0052 154.4033 48° Northeast 465 535 35,000  Climbing FlightAware ADS-B (YPLB)
08:35PM -31.9069 154.5296 48° Northeast 448 516 34,900  Descending Aus ATC (RADAR)
08:35PM -31.8912 154.5499 48° Northeast 461 531 35,000 120 Climbing FlightAware ADS-B (YPLB)
08:36PM -31.8308 154.6274 47° Northeast 464 534 35,000  Level FlightAware ADS-B (YPLB)
08:36PM -31.7721 154.7025 47° Northeast 466 536 35,000 -120 Level FlightAware ADS-B (YPLB)
08:37PM -31.6976 154.7980 47° Northeast 448 516 34,900  Descending Aus ATC (RADAR)
08:37PM -31.6563 154.8504 47° Northeast 467 537 35,000  Climbing FlightAware ADS-B (YPLB)
08:38PM -31.6187 154.8984 47° Northeast 464 534 34,900  Descending Aus ATC (RADAR)
08:38PM -31.6045 154.9165 47° Northeast 468 539 35,000  Climbing FlightAware ADS-B (YPLB)
08:40PM -31.4501 155.1128 47° Northeast 467 537 34,900 -60 Descending Aus ATC (RADAR)
08:40PM -31.4186 155.1523 47° Northeast 451 519 34,900  Level Aus ATC (RADAR)
08:41PM -31.3689 155.2153 47° Northeast 469 540 34,900 480 Level Aus ATC (RADAR)
08:42PM -31.2931 155.3109 47° Northeast 456 525 35,600 780 Climbing Aus ATC (RADAR)
08:42PM -31.2418 155.3753 47° Northeast 454 522 36,100 780 Climbing Aus ATC (RADAR)
08:43PM -31.1691 155.4664 47° Northeast 449 517 36,700 600 Climbing Aus ATC (RADAR)
08:44PM -31.1357 155.5092 48° Northeast 461 531 36,900 120 Climbing Aus ATC (RADAR)
08:44PM -31.0529 155.6121 47° Northeast 445 512 36,900  Level Aus ATC (RADAR)
08:45PM -30.9718 155.7130 47° Northeast 447 514 36,900  Level Aus ATC (RADAR)
08:46PM -30.9426 155.7495 47° Northeast 447 514 36,900  Level Aus ATC (RADAR)
08:46PM -30.8934 155.8112 47° Northeast 465 535 36,900  Level Aus ATC (RADAR)
08:47PM -30.8170 155.9060 47° Northeast 448 516 36,900 60 Level Aus ATC (RADAR)
08:48PM -30.7735 155.9621 48° Northeast 452 520 37,000  Climbing Aus ATC (RADAR)
08:48PM -30.6989 156.0644 50° Northeast 467 537 36,900 -120 Descending Aus ATC (RADAR)
08:49PM -30.6704 156.1022 49° Northeast 466 536 36,900  Level Aus ATC (RADAR)
08:50PM -30.5630 156.2436 49° Northeast 467 537 36,900  Level Aus ATC (RADAR)
08:50PM -30.5344 156.2812 49° Northeast 466 536 36,900  Level Aus ATC (RADAR)
08:51PM -30.4769 156.3565 48° Northeast 467 537 36,900  Level Aus ATC (RADAR)
08:52PM -30.3695 156.4974 49° Northeast 466 536 36,900  Level Aus ATC (RADAR)
08:53PM -30.3335 156.5446 49° Northeast 467 537 36,900  Level Aus ATC (RADAR)
08:54PM -30.2324 156.6761 48° Northeast 469 540 36,900  Level Aus ATC (RADAR)
08:56PM -30.0810 156.8727 48° Northeast 467 537 36,900  Level Aus ATC (RADAR)
08:56PM -30.0449 156.9197 48° Northeast 467 537 36,900  Level Aus ATC (RADAR)
08:57PM -29.9942 156.9854 48° Northeast 467 537 36,900  Level Aus ATC (RADAR)
08:58PM -29.9000 157.1069 48° Northeast 469 540 36,900  Level Aus ATC (RADAR)
08:58PM -29.8566 157.1627 48° Northeast 467 537 36,900  Level Aus ATC (RADAR)
08:59PM -29.7753 157.2664 48° Northeast 471 542 36,900  Level Aus ATC (RADAR)
09:00PM -29.6948 157.3693 48° Northeast 470 541 36,900  Level Aus ATC (RADAR)
09:01PM -29.6306 157.4522 48° Northeast 465 535 36,900  Level Aus ATC (RADAR)
09:01PM -29.6020 157.4888 48° Northeast 462 532 36,900  Level Aus ATC (RADAR)
09:02PM -29.5578 157.5446 48° Northeast 464 534 36,900  Level Aus ATC (RADAR)
09:03PM -29.4776 157.6458 48° Northeast 466 536 36,900  Level Aus ATC (RADAR)
09:03PM -29.4283 157.7094 48° Northeast 461 531 36,900  Level Aus ATC (RADAR)
09:04PM -29.3523 157.8083 49° Northeast 453 521 36,900  Level Aus ATC (RADAR)
09:05PM -29.2455 157.9442 48° Northeast 456 525 36,900  Level Aus ATC (RADAR)
09:06PM -29.1803 158.0258 48° Northeast 458 527 36,900  Level Aus ATC (RADAR)
09:06PM -29.1423 158.0720 47° Northeast 462 532 36,900  Level Aus ATC (RADAR)
09:07PM -29.0985 158.1264 47° Northeast 463 533 36,900  Level Aus ATC (RADAR)
09:08PM -29.0467 158.1895 47° Northeast 464 534 36,900  Level Aus ATC (RADAR)
09:13PM -28.6018 158.7438 47° Northeast 37,000  Climbing Aus ATC (Calculated)
09:14PM -28.4716 158.9046 47° Northeast 37,000  Level Aus ATC (Calculated)
09:16PM -28.3486 159.0561 47° Northeast  Level FlightAware Approximate
09:17PM -28.2674 159.1557 47° Northeast  Level FlightAware Approximate
09:17PM -28.2570 159.1681 50° Northeast 37,000  Level Aus ATC (Calculated)
09:19PM -28.1175 159.3540 50° Northeast  Level FlightAware Approximate
09:19PM -28.0577 159.4112 227° Southwest 37,000  Level Aus ATC (Calculated)
09:21PM -28.1623 159.2840 227° Southwest  Level FlightAware Approximate
09:22PM -28.2437 159.1846 227° Southwest  Level FlightAware Approximate
09:22PM -27.8681 159.6413 47° Northeast 37,000  Level Aus ATC (Calculated)
09:22PM -27.8236 159.6950 227° Southwest 37,000  Level Aus ATC (Calculated)
09:24PM -27.9502 159.5419 227° Southwest  Level FlightAware Approximate
09:25PM -28.0317 159.4430 227° Southwest  Level FlightAware Approximate
09:26PM -27.9404 159.5303 47° Northeast  Level Estimated
09:27PM -27.8591 159.6294 47° Northeast  Level FlightAware Approximate
09:27PM -27.3845 160.2222 47° Northeast 37,000  Level Aus ATC (Calculated)
09:29PM -27.2490 160.3836 47° Northeast  Level FlightAware Approximate
09:30PM -27.1668 160.4812 47° Northeast  Level FlightAware Approximate
09:30PM -27.0869 160.5758 47° Northeast 37,000  Level Aus ATC (Calculated)
09:31PM -27.0845 160.5786 47° Northeast  Level FlightAware Approximate
09:32PM -26.9950 160.6844 46° Northeast  Level FlightAware Approximate
09:32PM -26.9565 160.7298 360° North 37,000  Level Aus ATC (Calculated)
09:32PM -26.9565 160.7298 46° Northeast 37,000  Level Aus ATC (Calculated)
09:34PM -26.8349 160.8730 46° Northeast  Level FlightAware Approximate
09:35PM -26.7519 160.9704 46° Northeast  Level FlightAware Approximate
09:35PM -26.7171 161.0111 46° Northeast 37,000  Level Aus ATC (Calculated)
09:37PM -26.5662 161.1875 46° Northeast  Level FlightAware Approximate
09:37PM -26.5555 161.2000 46° Northeast 37,000  Level Aus ATC (Calculated)
09:38PM -26.4722 161.2969 46° Northeast  Level FlightAware Approximate
09:39PM -26.3890 161.3937 46° Northeast  Level FlightAware Approximate
09:39PM -26.3598 161.4276 46° Northeast 37,000  Level Aus ATC (Calculated)
09:40PM -26.2764 161.5242 46° Northeast  Level FlightAware Approximate
09:41PM -26.1930 161.6207 46° Northeast  Level FlightAware Approximate
09:42PM -26.1095 161.7170 46° Northeast  Level FlightAware Approximate
09:43PM -26.0259 161.8132 46° Northeast  Level FlightAware Approximate
09:44PM -25.9423 161.9092 46° Northeast  Level FlightAware Approximate
09:45PM -25.8586 162.0051 46° Northeast  Level FlightAware Approximate
09:46PM -25.7749 162.1009 46° Northeast  Level FlightAware Approximate
09:47PM -25.6910 162.1965 46° Northeast  Level FlightAware Approximate
09:48PM -25.6072 162.2921 46° Northeast  Level FlightAware Approximate
09:49PM -25.5233 162.3874 46° Northeast  Level FlightAware Approximate
09:49PM -25.4561 162.4635 46° Northeast 37,000  Level Aus ATC (Calculated)
09:50PM -25.3721 162.5587 46° Northeast  Level FlightAware Approximate
09:51PM -25.2880 162.6537 46° Northeast  Level FlightAware Approximate
09:52PM -25.2038 162.7485 46° Northeast  Level FlightAware Approximate
09:53PM -25.1196 162.8433 46° Northeast  Level FlightAware Approximate
09:54PM -25.0353 162.9379 45° Northeast  Level FlightAware Approximate
09:55PM -24.9509 163.0324 45° Northeast  Level FlightAware Approximate
09:56PM -25.0353 162.9379 225° Southwest  Level FlightAware Approximate
09:57PM -24.9509 163.0324 45° Northeast  Level FlightAware Approximate
09:58PM -25.0353 162.9379 225° Southwest  Level FlightAware Approximate
09:59PM -24.9509 163.0324 45° Northeast  Level FlightAware Approximate
10:00PM -25.0353 162.9379 225° Southwest  Level FlightAware Approximate
10:01PM -24.9509 163.0324 45° Northeast  Level FlightAware Approximate
10:02PM -25.0353 162.9379 225° Southwest  Level FlightAware Approximate
10:03PM -24.9509 163.0324 45° Northeast  Level FlightAware Approximate
10:04PM -25.0353 162.9379 225° Southwest  Level FlightAware Approximate
10:05PM -24.9509 163.0324 45° Northeast  Level FlightAware Approximate
10:06PM -25.0353 162.9379 225° Southwest  Level FlightAware Approximate
10:07PM -24.9372 163.0146 45° Northeast  Level Estimated
10:08PM -24.8536 163.1098 46° Northeast  Level FlightAware Approximate
10:09PM -24.7699 163.2048 46° Northeast  Level FlightAware Approximate
10:10PM -24.6862 163.2997 46° Northeast  Level FlightAware Approximate
10:11PM -24.6024 163.3945 46° Northeast  Level FlightAware Approximate
10:12PM -24.5185 163.4892 46° Northeast  Level FlightAware Approximate
10:13PM -24.4346 163.5837 46° Northeast  Level FlightAware Approximate
10:14PM -24.3506 163.6781 46° Northeast  Level FlightAware Approximate
10:15PM -24.2666 163.7724 46° Northeast  Level FlightAware Approximate
10:16PM -24.1824 163.8666 46° Northeast  Level FlightAware Approximate
10:17PM -24.0983 163.9606 46° Northeast  Level FlightAware Approximate
10:18PM -24.0141 164.0545 46° Northeast  Level FlightAware Approximate
10:19PM -23.9298 164.1483 46° Northeast  Level FlightAware Approximate
10:20PM -23.8455 164.2420 45° Northeast  Level FlightAware Approximate
10:21PM -23.7611 164.3356 45° Northeast  Level FlightAware Approximate
10:22PM -23.6766 164.4290 45° Northeast  Level FlightAware Approximate
10:23PM -23.5921 164.5223 45° Northeast  Level FlightAware Approximate
10:24PM -23.5076 164.6155 45° Northeast  Level FlightAware Approximate
10:25PM -23.4051 164.6839 45° Northeast  Level Estimated
10:26PM -23.3208 164.7773 45° Northeast  Level FlightAware Approximate
10:27PM -23.2365 164.8705 45° Northeast  Level FlightAware Approximate
10:28PM -23.1521 164.9636 45° Northeast  Level FlightAware Approximate
10:29PM -23.0676 165.0566 45° Northeast  Level FlightAware Approximate
10:30PM -22.9831 165.1494 45° Northeast  Level FlightAware Approximate
10:31PM -22.8986 165.2422 45° Northeast  Level FlightAware Approximate
10:32PM -22.8139 165.3348 45° Northeast  Level FlightAware Approximate
10:33PM -22.7293 165.4274 45° Northeast  Level FlightAware Approximate
10:34PM -22.6446 165.5198 45° Northeast  Level FlightAware Approximate
10:35PM -22.5598 165.6120 45° Northeast  Level FlightAware Approximate
10:36PM -22.4750 165.7042 45° Northeast  Level FlightAware Approximate
10:37PM -22.3901 165.7963 45° Northeast  Level FlightAware Approximate
10:38PM -22.3051 165.8883 45° Northeast  Level FlightAware Approximate
10:39PM -22.2202 165.9801 45° Northeast  Level FlightAware Approximate
10:40PM -22.1351 166.0718 45° Northeast  Level FlightAware Approximate
10:41PM -22.0270 166.1284 24° Northeast  Level Estimated
10:42PM -21.9183 166.1838 25° Northeast  Level FlightAware Approximate
10:43PM -21.8096 166.2391 25° Northeast  Level FlightAware Approximate
10:44PM -21.7009 166.2943 25° Northeast  Level FlightAware Approximate
10:45PM -21.5922 166.3495 25° Northeast  Level FlightAware Approximate
10:46PM -21.4835 166.4045 25° Northeast  Level FlightAware Approximate
10:47PM -21.3747 166.4595 25° Northeast  Level FlightAware Approximate
10:48PM -21.2659 166.5144 25° Northeast  Level FlightAware Approximate
10:49PM -21.1571 166.5692 25° Northeast  Level FlightAware Approximate
10:50PM -21.0483 166.6239 25° Northeast  Level FlightAware Approximate
10:51PM -20.9395 166.6785 25° Northeast  Level FlightAware Approximate
10:52PM -20.8307 166.7331 25° Northeast  Level FlightAware Approximate
10:53PM -20.7218 166.7876 25° Northeast  Level FlightAware Approximate
10:54PM -20.6129 166.8420 25° Northeast  Level FlightAware Approximate
10:55PM -20.5040 166.8963 25° Northeast  Level FlightAware Approximate
10:56PM -20.3951 166.9506 25° Northeast  Level FlightAware Approximate
10:57PM -20.2862 167.0048 25° Northeast  Level FlightAware Approximate
10:58PM -20.1772 167.0589 25° Northeast  Level FlightAware Approximate
10:59PM -20.0683 167.1129 25° Northeast  Level FlightAware Approximate
11:00PM -19.9593 167.1669 25° Northeast  Level FlightAware Approximate
11:01PM -19.8503 167.2207 25° Northeast  Level FlightAware Approximate
11:02PM -19.7413 167.2746 25° Northeast  Level FlightAware Approximate
11:03PM -19.6322 167.3283 25° Northeast  Level FlightAware Approximate
11:04PM -19.5243 167.3843 24° Northeast  Level Estimated
11:05PM -19.4142 167.4355 24° Northeast  Level FlightAware Approximate
11:06PM -19.3041 167.4866 24° Northeast  Level FlightAware Approximate
11:07PM -19.1939 167.5376 24° Northeast  Level FlightAware Approximate
11:08PM -19.0838 167.5885 24° Northeast  Level FlightAware Approximate
11:09PM -18.9736 167.6394 24° Northeast  Level FlightAware Approximate
11:10PM -18.8635 167.6902 24° Northeast  Level FlightAware Approximate
11:11PM -18.7533 167.7409 24° Northeast  Level FlightAware Approximate
11:12PM -18.6431 167.7916 24° Northeast  Level FlightAware Approximate
11:13PM -18.5371 167.8513 24° Northeast  Level Estimated
11:14PM -18.4265 167.9011 23° Northeast  Level FlightAware Approximate
11:15PM -18.3160 167.9509 23° Northeast  Level FlightAware Approximate
11:16PM -18.2055 168.0006 23° Northeast  Level FlightAware Approximate
11:17PM -18.0949 168.0502 23° Northeast  Level FlightAware Approximate
11:18PM -17.9844 168.0998 23° Northeast  Level FlightAware Approximate
11:19PM -17.8738 168.1493 23° Northeast  Level FlightAware Approximate
11:20PM -17.7632 168.1988 23° Northeast  Level FlightAware Approximate
11:21PM -17.6621 168.2439 24° Northeast  Level FlightAware Approximate
11:22PM -17.6993 168.3198 24° Northeast  Level Estimated
11:23PM -17.6993 168.3198 24° Northeast  Level Estimated
11:24PM -17.6993 168.3198 24° Northeast  Level Estimated
11:25PM -17.6993 168.3198 24° Northeast  Level Estimated